createdAt,value
2018-10-17T00:00:45.541Z,101425.09
2018-10-17T00:03:14.124Z,101422.89
2018-10-17T00:05:42.680Z,101415.63
2018-10-17T00:08:11.203Z,101419.13
2018-10-17T00:10:39.729Z,101417.46
2018-10-17T00:13:08.324Z,101419.66
2018-10-17T00:15:36.836Z,101418.41
2018-10-17T00:18:06.233Z,101416.47
2018-10-17T00:20:35.893Z,101414.83
2018-10-17T00:23:06.610Z,101420.33
2018-10-17T00:25:35.928Z,101416.18
2018-10-17T00:28:05.282Z,101419.53
2018-10-17T00:30:33.965Z,101415.91
2018-10-17T00:33:04.202Z,101415.88
2018-10-17T00:35:32.976Z,101413.99
2018-10-17T00:38:03.249Z,101415.94
2018-10-17T00:40:31.807Z,101421.11
2018-10-17T00:43:00.374Z,101418.51
2018-10-17T00:45:28.873Z,101419.47
2018-10-17T00:47:57.785Z,101421.20
2018-10-17T00:50:26.404Z,101407.66
2018-10-17T00:52:55.354Z,101408.35
2018-10-17T00:55:23.859Z,101408.66
2018-10-17T00:57:53.600Z,101418.12
2018-10-17T01:00:22.355Z,101412.33
2018-10-17T01:02:50.848Z,101402.86
2018-10-17T01:05:19.335Z,101402.92
2018-10-17T01:07:47.857Z,101401.34
2018-10-17T01:10:16.401Z,101399.72
2018-10-17T01:12:44.924Z,101402.55
2018-10-17T01:15:13.467Z,101402.21
2018-10-17T01:17:42.737Z,101405.40
2018-10-17T01:20:11.331Z,101407.23
2018-10-17T01:22:39.872Z,101405.19
2018-10-17T01:25:09.178Z,101407.73
2018-10-17T01:27:37.647Z,101409.03
2018-10-17T01:30:07.340Z,101403.61
2018-10-17T01:32:35.923Z,101402.36
2018-10-17T01:35:06.002Z,101397.79
2018-10-17T01:37:34.543Z,101397.11
2018-10-17T01:40:07.048Z,101397.11
2018-10-17T01:42:37.644Z,101393.96
2018-10-17T01:45:07.338Z,101386.73
2018-10-17T01:47:36.100Z,101388.09
2018-10-17T01:50:06.554Z,101385.47
2018-10-17T01:52:35.636Z,101386.52
2018-10-17T01:55:05.749Z,101392.41
2018-10-17T01:57:34.292Z,101393.62
2018-10-17T02:00:04.846Z,101401.12
2018-10-17T02:02:33.390Z,101396.54
2018-10-17T02:05:03.632Z,101395.58
2018-10-17T02:07:32.261Z,101393.03
2018-10-17T02:10:00.943Z,101396.34
2018-10-17T02:12:29.653Z,101390.25
2018-10-17T02:14:58.208Z,101381.20
2018-10-17T02:17:26.730Z,101379.22
2018-10-17T02:19:55.302Z,101381.66
2018-10-17T02:22:23.830Z,101385.95
2018-10-17T02:24:52.309Z,101383.38
2018-10-17T02:27:20.809Z,101383.84
2018-10-17T02:29:49.371Z,101381.82
2018-10-17T02:32:20.816Z,101384.78
2018-10-17T02:34:54.613Z,101383.05
2018-10-17T02:37:23.130Z,101381.38
2018-10-17T02:39:51.621Z,101384.48
2018-10-17T02:42:20.457Z,101372.71
2018-10-17T02:44:48.945Z,101373.23
2018-10-17T02:47:17.465Z,101381.38
2018-10-17T02:49:46.000Z,101377.38
2018-10-17T02:52:14.492Z,101378.91
2018-10-17T02:54:43.093Z,101379.44
2018-10-17T02:57:11.679Z,101379.88
2018-10-17T02:59:40.192Z,101386.81
2018-10-17T03:02:08.793Z,101383.89
2018-10-17T03:04:37.290Z,101381.10
2018-10-17T03:07:09.070Z,101388.41
2018-10-17T03:09:37.559Z,101388.86
2018-10-17T03:12:06.255Z,101390.88
2018-10-17T03:14:34.811Z,101392.03
2018-10-17T03:17:04.628Z,101394.67
2018-10-17T03:19:33.052Z,101396.62
2018-10-17T03:22:04.309Z,101395.19
2018-10-17T03:24:32.816Z,101393.61
2018-10-17T03:29:36.201Z,101391.19
2018-10-17T03:32:05.683Z,101388.64
2018-10-17T03:34:34.425Z,101397.38
2018-10-17T03:37:04.778Z,101395.87
2018-10-17T03:39:33.331Z,101398.19
2018-10-17T03:42:03.095Z,101394.05
2018-10-17T03:44:31.621Z,101402.71
2018-10-17T03:47:00.211Z,101398.70
2018-10-17T03:49:28.749Z,101408.53
2018-10-17T03:51:57.265Z,101405.74
2018-10-17T03:54:25.828Z,101414.27
2018-10-17T03:56:54.374Z,101408.08
2018-10-17T03:59:23.073Z,101406.33
2018-10-17T04:01:51.628Z,101414.75
2018-10-17T04:04:20.134Z,101417.95
2018-10-17T04:06:48.644Z,101414.79
2018-10-17T04:09:17.171Z,101411.00
2018-10-17T04:11:45.730Z,101421.62
2018-10-17T04:14:14.241Z,101419.83
2018-10-17T04:16:42.842Z,101411.77
2018-10-17T04:19:11.414Z,101415.88
2018-10-17T04:21:40.550Z,101411.90
2018-10-17T04:24:09.056Z,101411.34
2018-10-17T04:26:37.627Z,101414.89
2018-10-17T04:29:06.425Z,101417.37
2018-10-17T04:31:35.006Z,101417.21
2018-10-17T04:34:06.738Z,101417.02
2018-10-17T04:36:35.422Z,101420.25
2018-10-17T04:39:07.832Z,101414.07
2018-10-17T04:41:36.350Z,101411.80
2018-10-17T04:44:05.270Z,101419.02
2018-10-17T04:46:33.797Z,101418.09
2018-10-17T04:49:03.900Z,101414.16
2018-10-17T04:51:32.373Z,101417.50
2018-10-17T04:54:00.915Z,101410.09
2018-10-17T04:56:29.481Z,101409.53
2018-10-17T04:58:58.048Z,101417.42
2018-10-17T05:01:27.281Z,101417.09
2018-10-17T05:03:55.799Z,101415.86
2018-10-17T05:06:24.484Z,101414.83
2018-10-17T05:08:53.932Z,101416.30
2018-10-17T05:11:22.626Z,101419.84
2018-10-17T05:13:52.731Z,101419.25
2018-10-17T05:16:21.722Z,101421.47
2018-10-17T05:18:50.269Z,101426.66
2018-10-17T05:21:18.847Z,101428.88
2018-10-17T05:23:47.378Z,101438.91
2018-10-17T05:26:15.963Z,101434.65
2018-10-17T05:28:44.490Z,101431.66
2018-10-17T05:31:13.077Z,101433.81
2018-10-17T05:33:41.531Z,101429.06
2018-10-17T05:36:10.031Z,101433.13
2018-10-17T05:38:38.720Z,101434.39
2018-10-17T05:41:07.358Z,101429.81
2018-10-17T05:43:35.939Z,101434.91
2018-10-17T05:46:05.226Z,101433.98
2018-10-17T05:48:33.716Z,101427.65
2018-10-17T05:51:03.412Z,101431.28
2018-10-17T05:53:31.945Z,101428.74
2018-10-17T05:56:00.679Z,101428.98
2018-10-17T05:58:29.244Z,101433.23
2018-10-17T06:00:57.773Z,101433.04
2018-10-17T06:03:26.770Z,101429.14
2018-10-17T06:05:55.274Z,101436.23
2018-10-17T06:08:23.801Z,101431.69
2018-10-17T06:10:52.564Z,101432.02
2018-10-17T06:13:21.052Z,101430.78
2018-10-17T06:15:49.792Z,101436.48
2018-10-17T06:18:18.361Z,101437.24
2018-10-17T06:20:47.176Z,101434.83
2018-10-17T06:23:15.718Z,101445.27
2018-10-17T06:25:45.137Z,101442.63
2018-10-17T06:28:13.720Z,101442.66
2018-10-17T06:30:42.270Z,101446.64
2018-10-17T06:33:10.816Z,101447.67
2018-10-17T06:35:39.342Z,101450.47
2018-10-17T06:38:07.899Z,101453.06
2018-10-17T06:40:36.569Z,101451.28
2018-10-17T06:43:05.592Z,101449.09
2018-10-17T06:45:34.368Z,101458.22
2018-10-17T06:48:04.793Z,101450.49
2018-10-17T06:50:33.278Z,101462.34
2018-10-17T06:53:03.379Z,101461.39
2018-10-17T06:55:31.911Z,101458.84
2018-10-17T06:58:00.409Z,101461.03
2018-10-17T07:00:28.972Z,101462.55
2018-10-17T07:02:57.680Z,101460.52
2018-10-17T07:05:27.184Z,101458.00
2018-10-17T07:07:55.706Z,101464.50
2018-10-17T07:10:24.309Z,101462.77
2018-10-17T07:12:53.189Z,101466.10
2018-10-17T07:15:22.084Z,101461.68
2018-10-17T07:17:50.588Z,101460.47
2018-10-17T07:20:19.132Z,101465.78
2018-10-17T07:22:47.826Z,101458.75
2018-10-17T07:25:16.463Z,101456.57
2018-10-17T07:27:44.959Z,101456.05
2018-10-17T07:30:13.508Z,101449.95
2018-10-17T07:32:41.988Z,101459.22
2018-10-17T07:35:11.072Z,101457.72
2018-10-17T07:37:39.582Z,101467.52
2018-10-17T07:40:08.173Z,101466.33
2018-10-17T07:42:36.804Z,101466.53
2018-10-17T07:45:06.149Z,101472.03
2018-10-17T07:47:34.717Z,101471.27
2018-10-17T07:50:05.471Z,101475.52
2018-10-17T07:52:34.253Z,101475.06
2018-10-17T07:55:04.489Z,101479.58
2018-10-17T07:57:33.014Z,101480.99
2018-10-17T08:00:03.259Z,101482.11
2018-10-17T08:02:31.718Z,101480.85
2018-10-17T08:05:00.357Z,101478.06
2018-10-17T08:07:28.898Z,101477.67
2018-10-17T08:09:57.389Z,101479.43
2018-10-17T08:12:25.941Z,101477.95
2018-10-17T08:14:54.441Z,101484.50
2018-10-17T08:17:23.000Z,101485.34
2018-10-17T08:19:51.560Z,101495.32
2018-10-17T08:22:20.084Z,101487.68
2018-10-17T08:24:48.633Z,101494.50
2018-10-17T08:27:17.206Z,101493.35
2018-10-17T08:29:45.722Z,101500.27
2018-10-17T08:32:14.405Z,101497.03
2018-10-17T08:34:42.917Z,101501.59
2018-10-17T08:37:11.768Z,101504.36
2018-10-17T08:39:42.342Z,101497.39
2018-10-17T08:42:10.858Z,101498.87
2018-10-17T08:44:39.384Z,101507.70
2018-10-17T08:47:08.020Z,101506.30
2018-10-17T08:49:36.537Z,101504.36
2018-10-17T08:52:05.901Z,101506.52
2018-10-17T08:54:34.798Z,101511.00
2018-10-17T08:57:05.133Z,101502.41
2018-10-17T08:59:33.731Z,101506.72
2018-10-17T09:02:04.188Z,101502.06
2018-10-17T09:04:32.757Z,101500.89
2018-10-17T09:07:03.187Z,101505.36
2018-10-17T09:09:34.779Z,101505.21
2018-10-17T09:12:05.099Z,101507.58
2018-10-17T09:14:33.549Z,101503.41
2018-10-17T09:17:04.542Z,101499.50
2018-10-17T09:19:33.369Z,101506.25
2018-10-17T09:22:05.126Z,101499.80
2018-10-17T09:24:33.285Z,101502.77
2018-10-17T09:27:04.607Z,101504.64
2018-10-17T09:29:33.301Z,101511.92
2018-10-17T09:32:02.743Z,101507.25
2018-10-17T09:34:31.587Z,101509.86
2018-10-17T09:37:00.152Z,101503.84
2018-10-17T09:39:28.681Z,101507.53
2018-10-17T09:41:57.261Z,101510.77
2018-10-17T09:44:25.739Z,101509.34
2018-10-17T09:46:54.263Z,101509.75
2018-10-17T09:49:22.825Z,101510.93
2018-10-17T09:51:51.355Z,101515.70
2018-10-17T09:54:19.983Z,101508.34
2018-10-17T09:56:48.513Z,101513.06
2018-10-17T09:59:17.067Z,101518.89
2018-10-17T10:01:50.899Z,101518.66
2018-10-17T10:04:19.897Z,101520.20
2018-10-17T10:06:48.749Z,101519.95
2018-10-17T10:09:17.249Z,101517.75
2018-10-17T10:11:45.847Z,101517.11
2018-10-17T10:14:14.371Z,101513.58
2018-10-17T10:16:42.878Z,101515.09
2018-10-17T10:19:11.424Z,101514.04
2018-10-17T10:21:40.168Z,101513.20
2018-10-17T10:24:08.688Z,101517.63
2018-10-17T10:26:37.241Z,101512.24
2018-10-17T10:29:07.217Z,101511.13
2018-10-17T10:31:35.722Z,101513.27
2018-10-17T10:34:08.800Z,101513.62
2018-10-17T10:36:37.462Z,101520.42
2018-10-17T10:39:09.722Z,101519.47
2018-10-17T10:41:38.273Z,101519.49
2018-10-17T10:44:06.855Z,101511.23
2018-10-17T10:46:35.465Z,101514.27
2018-10-17T10:49:05.563Z,101515.91
2018-10-17T10:51:34.048Z,101518.95
2018-10-17T10:54:04.219Z,101512.33
2018-10-17T10:56:32.805Z,101512.88
2018-10-17T10:59:05.026Z,101516.48
2018-10-17T11:01:33.658Z,101506.02
2018-10-17T11:04:04.002Z,101507.09
2018-10-17T11:06:32.529Z,101503.78
2018-10-17T11:09:03.581Z,101502.17
2018-10-17T11:11:32.140Z,101497.50
2018-10-17T11:14:00.697Z,101497.77
2018-10-17T11:16:29.205Z,101495.28
2018-10-17T11:18:57.742Z,101495.56
2018-10-17T11:21:26.291Z,101494.72
2018-10-17T11:23:54.791Z,101503.62
2018-10-17T11:26:23.328Z,101502.00
2018-10-17T11:28:52.141Z,101503.53
2018-10-17T11:31:20.704Z,101506.50
2018-10-17T11:33:49.628Z,101506.70
2018-10-17T11:36:18.145Z,101511.25
2018-10-17T11:38:46.954Z,101508.56
2018-10-17T11:41:15.518Z,101510.13
2018-10-17T11:43:44.077Z,101505.86
2018-10-17T11:46:12.608Z,101506.28
2018-10-17T11:48:41.160Z,101501.19
2018-10-17T11:51:10.298Z,101496.36
2018-10-17T11:53:38.762Z,101500.13
2018-10-17T11:56:08.080Z,101499.97
2018-10-17T11:58:36.613Z,101492.34
2018-10-17T12:01:05.326Z,101487.81
2018-10-17T12:03:33.893Z,101483.84
2018-10-17T12:06:04.276Z,101479.98
2018-10-17T12:08:33.002Z,101480.72
2018-10-17T12:11:03.497Z,101477.10
2018-10-17T12:13:32.034Z,101468.70
2018-10-17T12:16:00.549Z,101476.27
2018-10-17T12:18:29.508Z,101470.55
2018-10-17T12:20:58.128Z,101463.70
2018-10-17T12:23:27.343Z,101458.48
2018-10-17T12:25:55.938Z,101460.33
2018-10-17T12:28:24.868Z,101462.05
2018-10-17T12:30:53.408Z,101460.22
2018-10-17T12:33:21.947Z,101457.83
2018-10-17T12:35:51.410Z,101460.71
2018-10-17T12:38:19.940Z,101459.66
2018-10-17T12:40:48.657Z,101464.64
2018-10-17T12:43:17.090Z,101467.19
2018-10-17T12:45:45.683Z,101465.97
2018-10-17T12:48:14.221Z,101471.98
2018-10-17T12:50:43.016Z,101474.63
2018-10-17T12:53:11.633Z,101469.38
2018-10-17T12:55:40.164Z,101470.81
2018-10-17T12:58:08.862Z,101477.18
2018-10-17T13:00:37.401Z,101471.70
2018-10-17T13:03:06.048Z,101481.33
2018-10-17T13:05:34.592Z,101474.74
2018-10-17T13:08:04.521Z,101477.39
2018-10-17T13:10:33.105Z,101477.34
2018-10-17T13:13:02.750Z,101473.38
2018-10-17T13:15:31.257Z,101474.50
2018-10-17T13:17:59.799Z,101477.89
2018-10-17T13:20:28.382Z,101471.54
2018-10-17T13:22:56.989Z,101469.82
2018-10-17T13:25:25.487Z,101468.55
2018-10-17T13:27:53.996Z,101474.03
2018-10-17T13:30:22.531Z,101472.89
2018-10-17T13:32:51.057Z,101475.09
2018-10-17T13:35:19.688Z,101471.81
2018-10-17T13:37:48.253Z,101473.36
2018-10-17T13:40:16.792Z,101474.53
2018-10-17T13:42:45.324Z,101470.13
2018-10-17T13:45:14.361Z,101471.56
2018-10-17T13:47:42.997Z,101469.09
2018-10-17T13:50:12.432Z,101473.36
2018-10-17T13:52:41.045Z,101474.02
2018-10-17T13:55:10.072Z,101473.31
2018-10-17T13:57:38.677Z,101472.33
2018-10-17T14:00:10.623Z,101474.06
2018-10-17T14:02:39.197Z,101475.75
2018-10-17T14:05:07.915Z,101470.64
2018-10-17T14:07:36.467Z,101478.47
2018-10-17T14:10:05.888Z,101480.55
2018-10-17T14:12:34.974Z,101475.23
2018-10-17T14:15:06.369Z,101473.75
2018-10-17T14:17:34.882Z,101474.74
2018-10-17T14:20:05.444Z,101473.92
2018-10-17T14:22:34.028Z,101478.36
2018-10-17T14:25:03.688Z,101474.27
2018-10-17T14:27:32.220Z,101478.36
2018-10-17T14:30:00.807Z,101480.91
2018-10-17T14:32:29.418Z,101476.94
2018-10-17T14:34:57.905Z,101475.81
2018-10-17T14:37:26.627Z,101473.61
2018-10-17T14:39:55.435Z,101476.31
2018-10-17T14:42:23.970Z,101477.55
2018-10-17T14:44:52.583Z,101481.24
2018-10-17T14:47:21.157Z,101480.56
2018-10-17T14:49:49.712Z,101474.16
2018-10-17T14:52:18.269Z,101484.56
2018-10-17T14:54:46.836Z,101487.42
2018-10-17T14:57:15.780Z,101484.55
2018-10-17T14:59:44.254Z,101480.70
2018-10-17T15:02:12.832Z,101483.27
2018-10-17T15:04:41.384Z,101482.41
2018-10-17T15:07:09.906Z,101483.72
2018-10-17T15:09:38.656Z,101480.87
2018-10-17T15:12:07.311Z,101489.74
2018-10-17T15:14:35.813Z,101487.02
2018-10-17T15:17:05.721Z,101479.30
2018-10-17T15:19:38.810Z,101488.59
2018-10-17T15:22:07.689Z,101483.20
2018-10-17T15:24:36.224Z,101484.83
2018-10-17T15:27:07.201Z,101489.27
2018-10-17T15:29:35.728Z,101484.58
2018-10-17T15:32:05.190Z,101481.79
2018-10-17T15:34:33.756Z,101493.66
2018-10-17T15:37:04.107Z,101495.56
2018-10-17T15:39:33.260Z,101497.79
2018-10-17T15:42:03.184Z,101499.70
2018-10-17T15:44:31.829Z,101496.69
2018-10-17T15:47:00.496Z,101498.87
2018-10-17T15:49:29.046Z,101495.03
2018-10-17T15:51:57.563Z,101494.74
2018-10-17T15:54:26.188Z,101497.77
2018-10-17T15:56:54.762Z,101496.40
2018-10-17T15:59:23.297Z,101503.00
2018-10-17T16:01:51.856Z,101502.98
2018-10-17T16:04:20.385Z,101509.02
2018-10-17T16:06:48.942Z,101508.16
2018-10-17T16:09:17.562Z,101505.09
2018-10-17T16:11:46.121Z,101503.13
2018-10-17T16:14:14.765Z,101508.63
2018-10-17T16:16:43.210Z,101507.53
2018-10-17T16:19:11.827Z,101503.83
2018-10-17T16:21:40.347Z,101504.88
2018-10-17T16:24:08.992Z,101511.42
2018-10-17T16:26:37.599Z,101517.09
2018-10-17T16:29:06.214Z,101516.62
2018-10-17T16:31:34.778Z,101515.59
2018-10-17T16:34:04.466Z,101523.21
2018-10-17T16:36:33.288Z,101523.89
2018-10-17T16:39:03.155Z,101529.27
2018-10-17T16:41:31.842Z,101529.86
2018-10-17T16:44:00.374Z,101535.63
2018-10-17T16:46:29.168Z,101539.41
2018-10-17T16:48:57.671Z,101537.69
2018-10-17T16:51:26.245Z,101541.81
2018-10-17T16:53:54.922Z,101544.52
2018-10-17T16:56:23.458Z,101546.33
2018-10-17T16:58:51.956Z,101551.64
2018-10-17T17:01:20.888Z,101551.98
2018-10-17T17:03:49.378Z,101561.47
2018-10-17T17:06:17.953Z,101563.23
2018-10-17T17:08:46.475Z,101561.97
2018-10-17T17:11:15.090Z,101566.34
2018-10-17T17:13:43.639Z,101569.75
2018-10-17T17:16:12.231Z,101570.13
2018-10-17T17:18:40.760Z,101574.77
2018-10-17T17:21:09.763Z,101579.79
2018-10-17T17:23:38.257Z,101580.66
2018-10-17T17:26:06.786Z,101581.69
2018-10-17T17:28:35.324Z,101587.04
2018-10-17T17:31:05.903Z,101587.43
2018-10-17T17:33:34.491Z,101586.66
2018-10-17T17:36:06.520Z,101585.14
2018-10-17T17:38:35.105Z,101589.20
2018-10-17T17:41:07.106Z,101592.64
2018-10-17T17:43:35.619Z,101597.95
2018-10-17T17:46:05.667Z,101595.14
2018-10-17T17:48:35.931Z,101604.25
2018-10-17T17:51:05.198Z,101605.58
2018-10-17T17:53:33.731Z,101605.21
2018-10-17T17:56:04.024Z,101606.44
2018-10-17T17:58:32.807Z,101606.48
2018-10-17T18:01:02.784Z,101608.77
2018-10-17T18:03:31.297Z,101613.06
2018-10-17T18:06:00.153Z,101613.02
2018-10-17T18:08:29.165Z,101611.05
2018-10-17T18:11:04.469Z,101613.48
2018-10-17T18:13:33.003Z,101620.04
2018-10-17T18:16:03.684Z,101617.53
2018-10-17T18:18:32.183Z,101613.47
2018-10-17T18:21:00.733Z,101618.41
2018-10-17T18:23:29.309Z,101621.86
2018-10-17T18:25:57.867Z,101623.89
2018-10-17T18:28:26.460Z,101627.38
2018-10-17T18:30:55.318Z,101621.58
2018-10-17T18:33:23.885Z,101629.05
2018-10-17T18:35:52.449Z,101640.75
2018-10-17T18:38:21.049Z,101628.95
2018-10-17T18:40:49.619Z,101641.45
2018-10-17T18:43:18.381Z,101646.60
2018-10-17T18:45:47.273Z,101650.70
2018-10-17T18:48:15.806Z,101647.09
2018-10-17T18:50:44.430Z,101651.18
2018-10-17T18:53:13.237Z,101652.59
2018-10-17T18:55:42.505Z,101652.11
2018-10-17T18:58:11.036Z,101654.53
2018-10-17T19:00:39.950Z,101661.05
2018-10-17T19:03:08.552Z,101660.50
2018-10-17T19:05:38.031Z,101658.40
2018-10-17T19:08:07.128Z,101660.24
2018-10-17T19:10:35.889Z,101661.95
2018-10-17T19:13:05.438Z,101659.37
2018-10-17T19:15:34.385Z,101661.53
2018-10-17T19:18:04.541Z,101663.63
2018-10-17T19:20:33.116Z,101669.61
2018-10-17T19:23:05.087Z,101675.43
2018-10-17T19:25:33.628Z,101682.88
2018-10-17T19:28:04.283Z,101678.16
2018-10-17T19:30:33.003Z,101688.28
2018-10-17T19:33:03.234Z,101691.95
2018-10-17T19:35:31.817Z,101689.75
2018-10-17T19:38:00.401Z,101689.33
2018-10-17T19:40:29.155Z,101690.11
2018-10-17T19:42:57.752Z,101693.72
2018-10-17T19:45:26.339Z,101697.38
2018-10-17T19:47:55.097Z,101688.38
2018-10-17T19:50:23.878Z,101692.71
2018-10-17T19:52:52.459Z,101692.83
2018-10-17T19:55:21.062Z,101697.11
2018-10-17T19:57:49.652Z,101689.98
2018-10-17T20:00:18.227Z,101691.81
2018-10-17T20:02:46.797Z,101691.98
2018-10-17T20:05:15.434Z,101691.08
2018-10-17T20:07:44.070Z,101690.96
2018-10-17T20:10:12.683Z,101696.10
2018-10-17T20:12:41.503Z,101688.02
2018-10-17T20:15:10.150Z,101698.09
2018-10-17T20:17:38.650Z,101699.45
2018-10-17T20:20:07.353Z,101700.38
2018-10-17T20:22:36.042Z,101694.03
2018-10-17T20:25:06.552Z,101693.34
2018-10-17T20:27:35.156Z,101695.39
2018-10-17T20:30:06.938Z,101692.39
2018-10-17T20:32:35.484Z,101689.97
2018-10-17T20:35:07.838Z,101689.97
2018-10-17T20:37:36.378Z,101693.81
2018-10-17T20:40:05.239Z,101695.11
2018-10-17T20:42:34.080Z,101698.17
2018-10-17T20:45:03.942Z,101699.09
2018-10-17T20:47:34.356Z,101700.33
2018-10-17T20:50:04.105Z,101701.37
2018-10-17T20:52:32.785Z,101703.05
2018-10-17T20:55:02.752Z,101700.33
2018-10-17T20:57:31.339Z,101706.36
2018-10-17T20:59:59.910Z,101709.55
2018-10-17T21:02:28.526Z,101709.39
2018-10-17T21:04:57.082Z,101722.37
2018-10-17T21:07:25.666Z,101718.45
2018-10-17T21:09:54.203Z,101718.26
2018-10-17T21:12:22.749Z,101723.09
2018-10-17T21:14:51.704Z,101728.61
2018-10-17T21:17:20.243Z,101729.11
2018-10-17T21:19:48.792Z,101727.16
2018-10-17T21:22:17.613Z,101732.42
2018-10-17T21:24:46.136Z,101734.98
2018-10-17T21:27:14.672Z,101736.59
2018-10-17T21:29:43.222Z,101733.78
2018-10-17T21:32:11.937Z,101736.51
2018-10-17T21:34:40.447Z,101737.87
2018-10-17T21:37:09.010Z,101738.77
2018-10-17T21:39:37.593Z,101746.48
2018-10-17T21:42:06.184Z,101747.09
2018-10-17T21:44:34.766Z,101746.08
2018-10-17T21:47:05.015Z,101750.47
2018-10-17T21:49:33.602Z,101758.23
2018-10-17T21:52:04.967Z,101757.47
2018-10-17T21:54:33.611Z,101758.20
2018-10-17T21:57:03.894Z,101756.41
2018-10-17T21:59:32.464Z,101759.72
2018-10-17T22:02:02.904Z,101756.38
2018-10-17T22:04:31.569Z,101753.10
2018-10-17T22:07:00.202Z,101757.77
2018-10-17T22:09:28.752Z,101754.00
2018-10-17T22:11:57.298Z,101754.92
2018-10-17T22:14:25.970Z,101759.64
2018-10-17T22:16:59.636Z,101754.03
2018-10-17T22:19:28.306Z,101756.39
2018-10-17T22:21:56.854Z,101759.83
2018-10-17T22:24:25.381Z,101754.22
2018-10-17T22:26:53.954Z,101757.31
2018-10-17T22:29:22.581Z,101754.21
2018-10-17T22:31:51.155Z,101756.20
2018-10-17T22:34:19.732Z,101759.60
2018-10-17T22:36:48.320Z,101756.05
2018-10-17T22:39:17.131Z,101758.61
2018-10-17T22:41:46.105Z,101758.67
2018-10-17T22:44:14.732Z,101760.74
2018-10-17T22:46:43.416Z,101757.56
2018-10-17T22:49:12.196Z,101772.69
2018-10-17T22:51:40.901Z,101759.53
2018-10-17T22:54:09.476Z,101761.58
2018-10-17T22:56:39.089Z,101767.49
2018-10-17T22:59:07.645Z,101769.53
2018-10-17T23:01:36.729Z,101765.06
2018-10-17T23:04:05.803Z,101769.98
2018-10-17T23:06:35.433Z,101769.09
2018-10-17T23:09:09.598Z,101758.97
2018-10-17T23:11:38.446Z,101764.48
2018-10-17T23:14:07.469Z,101769.34
2018-10-17T23:16:36.188Z,101760.78
2018-10-17T23:19:05.874Z,101761.38
2018-10-17T23:21:34.796Z,101760.02
2018-10-17T23:24:04.568Z,101761.84
2018-10-17T23:26:33.212Z,101763.27
2018-10-17T23:29:03.357Z,101767.59
2018-10-17T23:31:32.029Z,101766.30
2018-10-17T23:34:00.523Z,101771.75
2018-10-17T23:36:29.380Z,101775.44
2018-10-17T23:38:57.881Z,101772.44
2018-10-17T23:41:26.427Z,101780.67
2018-10-17T23:43:55.231Z,101773.86
2018-10-17T23:46:23.768Z,101781.34
2018-10-17T23:48:52.926Z,101783.02
2018-10-17T23:51:21.447Z,101779.60
2018-10-17T23:53:50.173Z,101789.83
2018-10-17T23:56:19.836Z,101793.60
2018-10-17T23:58:48.460Z,101788.40
